CZUMCYYR

Guest
Details From CZUM - CHURCHILL FALLS
To CYYR - Goose Bay
Flight Number -
Tags generated
Created
Modified
Stats Distance 146 nm / 271 km
Max Altitude 4,600 ft / 1,402 m
Waypoints 4
Social Downloads 0
Likes 0
Share VATSIM

Download

Looking for another format? Having issues loading an existing format? Contact us
Advertisement - Login to hide

Notes

Basic altitude profile: - Ascent Rate: 2500ft/min - Ascent Speed: 250kts - Cruise Altitude: 35000ft - Cruise Speed: 420kts - Descent Rate: 1500ft/min - Descent Speed: 250kts Options: - Use NATs: yes - Use PACOTS: yes - Use low airways: yes - Use high airways: yes

Route

CZUM UM R29 YR CYYR

ID Type Via Altitude Latitude Longitude Leg Dist Tot Dist Heading (true) Name
O CZUM APT - 0 ft / 0 m 53.56262˚ -64.10594˚ - 0 nm - CHURCHILL FALLS
UM NDB - 1,700 ft / 518 m 53.59056˚ -64.23556˚ 4 nm 4 nm 290° / 290° CHURCHILL FALLS NDB
YR NDB R29 (AWY-LO) 4,600 ft / 1,402 m 53.33833˚ -60.36667˚ 139 nm 144 nm 95° / 98° GOOSE NDB
O CYYR APT - 0 ft / 0 m 53.31882˚ -60.42389˚ 2 nm 146 nm 240° / 240° Goose Bay

Altitude Profile

Advertisement - Login to hide

CZUM

Details ICAO CZUM (ZUM)
Name CHURCHILL FALLS
Region Canada
Timezone America/Goose_Bay (UTC-4.0)
Stats Elevation 1,442 ft / 440 m (AMSL)
Location 53.562625° -64.105935°
Runways 1
Magnetic Variation 20.784° W

METAR

CZUM 180300Z AUTO 27008KT 9SM SCT022 BKN037 M20/M23 A2973 RMK SLP115

Decode

TAF

TAF CZUM 180138Z 1802/1814 27010G20KT P6SM OVC025 TEMPO 1802/1804 5SM -SN OVC020 FM180400 29010KT P6SM SCT020 TEMPO 1804/1814 5SM -SN BKN020 RMK FCST BASED ON AUTO OBS. NXT FCST BY 180800Z

Decode

Departure Runways

ID Width Length Bearing (true) Bearing (mag) Surface Threshold Offset Overrun Length
13 150 ft / 46 m 5,484 ft / 1,671 m 104.57° 125.35° Asphalt 0 ft / 0 m 0 ft / 0 m
31 150 ft / 46 m 5,484 ft / 1,671 m 284.59° 305.37° Asphalt 0 ft / 0 m 0 ft / 0 m

CYYR

Details ICAO CYYR (YYR)
Name Goose Bay
Region Canada
Timezone America/Goose_Bay (UTC-4.0)
Stats Elevation 160 ft / 49 m (AMSL)
Location 53.318820° -60.423890°
Runways 2
Magnetic Variation 20.961° W

METAR

CYYR 180300Z 29009G15KT 15SM FEW062 FEW160 SCT180 M13/M21 A2975 RMK SC1AC2AC2 SLP078

Decode

TAF

TAF CYYR 172330Z 1800/1824 29012KT P6SM BKN080 FM180300 27012KT P6SM FEW050 BECMG 1814/1816 27012G22KT FM181800 25010G20KT P6SM BKN060 TEMPO 1818/1824 P6SM -SN BECMG 1820/1822 25010KT RMK NXT FCST BY 180600Z

Decode

Destination Runways

ID Width Length Bearing (true) Bearing (mag) Surface Threshold Offset Overrun Length
08 209 ft / 64 m 11,055 ft / 3,369 m 54.70° 75.66° Asphalt 0 ft / 0 m 1,000 ft / 305 m
16 200 ft / 61 m 9,515 ft / 2,900 m 132.96° 153.92° Asphalt 0 ft / 0 m 0 ft / 0 m
26 209 ft / 64 m 11,055 ft / 3,369 m 234.73° 255.69° Asphalt 0 ft / 0 m 1,000 ft / 305 m
34 200 ft / 61 m 9,515 ft / 2,900 m 312.99° 333.95° Asphalt 0 ft / 0 m 500 ft / 152 m